createdAt,value
2019-04-27T00:02:23.068Z,92.50
2019-04-27T00:04:58.221Z,92.50
2019-04-27T00:07:29.602Z,91.80
2019-04-27T00:10:00.144Z,92.10
2019-04-27T00:12:33.061Z,90.80
2019-04-27T00:15:03.434Z,91.20
2019-04-27T00:17:56.897Z,91.70
2019-04-27T00:20:26.274Z,92.00
2019-04-27T00:23:00.398Z,91.80
2019-04-27T00:25:30.310Z,91.20
2019-04-27T00:28:00.031Z,91.20
2019-04-27T00:30:29.908Z,91.50
2019-04-27T00:32:59.742Z,90.60
2019-04-27T00:35:31.481Z,90.60
2019-04-27T00:38:10.189Z,90.90
2019-04-27T00:40:38.528Z,91.00
2019-04-27T00:43:08.404Z,90.00
2019-04-27T00:45:38.454Z,89.40
2019-04-27T00:48:08.528Z,90.00
2019-04-27T00:50:39.338Z,90.30
2019-04-27T00:53:09.201Z,90.00
2019-04-27T00:55:40.734Z,89.20
2019-04-27T00:58:13.586Z,89.60
2019-04-27T01:00:50.214Z,90.00
2019-04-27T01:03:22.864Z,90.10
2019-04-27T01:05:54.114Z,90.10
2019-04-27T01:08:23.898Z,90.40
2019-04-27T01:10:53.857Z,86.70
2019-04-27T01:13:23.613Z,86.80
2019-04-27T01:15:54.162Z,87.30
2019-04-27T01:18:25.767Z,86.30
2019-04-27T01:20:59.096Z,86.30
2019-04-27T01:23:29.412Z,87.10
2019-04-27T01:26:03.574Z,86.30
2019-04-27T01:28:34.850Z,86.20
2019-04-27T01:31:11.958Z,85.90
2019-04-27T01:36:10.964Z,85.60
2019-04-27T01:38:41.071Z,86.70
2019-04-27T01:41:11.064Z,85.90
2019-04-27T01:43:43.366Z,84.60
2019-04-27T01:46:13.259Z,85.10
2019-04-27T01:48:43.105Z,85.70
2019-04-27T01:53:41.993Z,85.00
2019-04-27T01:56:11.792Z,85.00
2019-04-27T01:58:41.445Z,85.00
2019-04-27T02:01:24.221Z,85.40
2019-04-27T02:04:14.644Z,86.00
2019-04-27T02:06:45.994Z,86.00
2019-04-27T02:09:18.794Z,86.00
2019-04-27T02:11:49.092Z,85.60
2019-04-27T02:14:19.604Z,85.60
2019-04-27T02:16:49.483Z,85.20
2019-04-27T02:19:19.494Z,84.30
2019-04-27T02:21:51.497Z,83.00
2019-04-27T02:24:20.263Z,83.20
2019-04-27T02:26:50.543Z,83.30
2019-04-27T02:29:25.674Z,81.30
2019-04-27T02:32:13.340Z,81.80
2019-04-27T02:34:57.047Z,79.10
2019-04-27T02:37:26.779Z,79.70
2019-04-27T02:39:56.751Z,78.20
2019-04-27T02:42:29.767Z,78.50
2019-04-27T02:44:59.891Z,79.10
2019-04-27T02:47:29.647Z,77.90
2019-04-27T02:50:01.563Z,78.00
2019-04-27T02:52:32.977Z,78.60
2019-04-27T02:55:01.777Z,76.60
2019-04-27T02:57:32.558Z,77.40
2019-04-27T03:02:35.050Z,75.80
2019-04-27T03:05:05.755Z,76.50
2019-04-27T03:07:35.929Z,77.20
2019-04-27T03:10:09.687Z,77.50
2019-04-27T03:12:42.318Z,78.00
2019-04-27T03:15:16.147Z,77.10
2019-04-27T03:17:49.385Z,75.80
2019-04-27T03:20:23.014Z,76.40
2019-04-27T03:22:54.375Z,76.40
2019-04-27T03:25:26.470Z,75.40
2019-04-27T03:30:31.776Z,75.70
2019-04-27T03:33:02.691Z,76.60
2019-04-27T03:35:35.273Z,75.90
2019-04-27T03:38:02.399Z,76.00
2019-04-27T03:40:31.987Z,73.90
2019-04-27T03:43:04.276Z,74.60
2019-04-27T03:45:36.367Z,73.70
2019-04-27T03:48:05.301Z,74.10
2019-04-27T03:50:39.810Z,75.00
2019-04-27T03:53:29.276Z,75.80
2019-04-27T03:56:16.019Z,74.70
2019-04-27T03:58:50.233Z,75.40
2019-04-27T04:01:20.422Z,76.00
2019-04-27T04:03:50.440Z,75.70
2019-04-27T04:06:21.722Z,75.50
2019-04-27T04:08:55.002Z,75.80
2019-04-27T04:11:32.578Z,75.80
2019-04-27T04:16:40.858Z,74.80
2019-04-27T04:19:13.676Z,73.80
2019-04-27T04:21:43.723Z,74.00
2019-04-27T04:24:13.358Z,74.80
2019-04-27T04:26:43.122Z,74.20
2019-04-27T04:29:12.907Z,74.60
2019-04-27T04:31:42.650Z,72.60
2019-04-27T04:34:15.060Z,73.20
2019-04-27T04:36:44.708Z,73.30
2019-04-27T04:39:14.451Z,70.90
2019-04-27T04:41:50.654Z,71.50
2019-04-27T04:44:21.139Z,71.90
2019-04-27T04:47:02.181Z,70.40
2019-04-27T04:49:31.750Z,71.00
2019-04-27T04:52:01.630Z,69.90
2019-04-27T04:54:31.253Z,71.00
2019-04-27T04:57:01.079Z,70.80
2019-04-27T04:59:31.933Z,70.80
2019-04-27T05:02:02.473Z,70.30
2019-04-27T05:04:32.424Z,70.80
2019-04-27T05:07:02.132Z,70.40
2019-04-27T05:09:31.819Z,69.50
2019-04-27T05:12:01.685Z,69.00
2019-04-27T05:14:31.487Z,69.30
2019-04-27T05:17:01.169Z,68.70
2019-04-27T05:19:31.359Z,69.20
2019-04-27T05:22:01.131Z,69.70
2019-04-27T05:24:30.863Z,68.10
2019-04-27T05:27:00.535Z,68.30
2019-04-27T05:29:33.092Z,68.00
2019-04-27T05:32:02.888Z,67.20
2019-04-27T05:34:32.544Z,67.90
2019-04-27T05:37:02.518Z,67.60
2019-04-27T05:39:32.264Z,67.90
2019-04-27T05:42:03.252Z,67.70
2019-04-27T05:45:15.335Z,67.30
2019-04-27T05:47:48.401Z,66.10
2019-04-27T05:50:20.093Z,66.80
2019-04-27T05:52:49.509Z,66.90
2019-04-27T05:55:19.215Z,66.40
2019-04-27T05:57:49.105Z,67.00
2019-04-27T06:00:20.644Z,67.70
2019-04-27T06:02:50.337Z,68.00
2019-04-27T06:05:22.579Z,67.30
2019-04-27T06:07:51.376Z,67.30
2019-04-27T06:10:21.159Z,67.20
2019-04-27T06:12:52.637Z,66.70
2019-04-27T06:15:28.371Z,67.00
2019-04-27T06:17:59.651Z,66.20
2019-04-27T06:20:29.292Z,66.50
2019-04-27T06:22:59.423Z,67.00
2019-04-27T06:25:30.517Z,65.90
2019-04-27T06:28:00.022Z,66.00
2019-04-27T06:30:29.732Z,66.60
2019-04-27T06:32:59.497Z,66.60
2019-04-27T06:35:29.651Z,67.00
2019-04-27T06:37:59.324Z,66.90
2019-04-27T06:40:29.129Z,67.20
2019-04-27T06:43:01.423Z,67.30
2019-04-27T06:45:31.138Z,67.50
2019-04-27T06:48:03.723Z,67.90
2019-04-27T06:50:33.794Z,69.20
2019-04-27T06:53:03.526Z,69.80
2019-04-27T06:55:34.937Z,70.00
2019-04-27T06:58:04.791Z,69.40
2019-04-27T07:00:34.525Z,69.80
2019-04-27T07:03:04.366Z,69.60
2019-04-27T07:05:34.302Z,70.10
2019-04-27T07:08:04.111Z,70.60
2019-04-27T07:10:33.927Z,71.30
2019-04-27T07:13:04.825Z,72.00
2019-04-27T07:15:36.182Z,71.80
2019-04-27T07:18:05.909Z,72.20
2019-04-27T07:20:35.592Z,72.80
2019-04-27T07:23:07.109Z,73.90
2019-04-27T07:25:38.775Z,74.70
2019-04-27T07:28:09.180Z,76.80
2019-04-27T07:30:39.081Z,76.80
2019-04-27T07:33:08.844Z,77.30
2019-04-27T07:35:39.329Z,76.60
2019-04-27T07:38:09.955Z,76.70
2019-04-27T07:40:41.816Z,76.80
2019-04-27T07:43:12.602Z,77.90
2019-04-27T07:45:41.877Z,78.80
2019-04-27T07:48:11.614Z,75.60
2019-04-27T07:50:41.457Z,75.20
2019-04-27T07:53:11.034Z,77.40
2019-04-27T07:55:40.565Z,76.40
2019-04-27T07:58:10.306Z,76.70
2019-04-27T08:00:40.094Z,76.40
2019-04-27T08:03:10.877Z,74.10
2019-04-27T08:05:40.602Z,74.70
2019-04-27T08:08:10.561Z,73.40
2019-04-27T08:10:40.214Z,74.40
2019-04-27T08:13:09.832Z,71.80
2019-04-27T08:15:39.748Z,73.50
2019-04-27T08:18:12.290Z,71.10
2019-04-27T08:20:41.933Z,72.70
2019-04-27T08:23:11.499Z,70.80
2019-04-27T08:25:41.106Z,72.40
2019-04-27T08:28:12.348Z,70.10
2019-04-27T08:30:43.708Z,71.20
2019-04-27T08:33:14.121Z,70.80
2019-04-27T08:35:44.146Z,69.20
2019-04-27T08:38:13.767Z,70.00
2019-04-27T08:40:43.476Z,70.50
2019-04-27T08:43:13.920Z,69.40
2019-04-27T08:45:43.667Z,68.60
2019-04-27T08:48:13.443Z,69.20
2019-04-27T08:50:43.115Z,67.60
2019-04-27T08:53:12.758Z,68.00
2019-04-27T08:55:42.432Z,67.10
2019-04-27T08:58:12.175Z,68.40
2019-04-27T09:00:41.892Z,66.40
2019-04-27T09:03:11.709Z,67.40
2019-04-27T09:05:41.528Z,66.50
2019-04-27T09:08:19.108Z,65.30
2019-04-27T09:10:56.558Z,66.80
2019-04-27T09:13:30.402Z,65.20
2019-04-27T09:16:02.054Z,64.00
2019-04-27T09:21:04.482Z,62.90
2019-04-27T09:23:34.360Z,63.60
2019-04-27T09:26:04.146Z,61.20
2019-04-27T09:28:33.878Z,62.00
2019-04-27T09:31:03.595Z,62.80
2019-04-27T09:33:33.276Z,60.90
2019-04-27T09:36:03.040Z,61.60
2019-04-27T09:38:32.991Z,60.20
2019-04-27T09:41:02.917Z,60.90
2019-04-27T09:43:32.639Z,58.50
2019-04-27T09:46:02.513Z,58.20
2019-04-27T09:48:32.537Z,57.70
2019-04-27T09:51:02.617Z,58.40
2019-04-27T09:53:33.524Z,57.90
2019-04-27T09:56:07.815Z,58.40
2019-04-27T09:58:37.758Z,58.80
2019-04-27T10:01:08.453Z,58.40
2019-04-27T10:03:38.154Z,59.70
2019-04-27T10:06:08.237Z,60.00
2019-04-27T10:08:38.248Z,60.20
2019-04-27T10:11:08.018Z,60.10
2019-04-27T10:13:37.613Z,58.80
2019-04-27T10:16:07.396Z,56.70
2019-04-27T10:18:37.200Z,56.30
2019-04-27T10:21:07.053Z,56.40
2019-04-27T10:23:38.426Z,56.90
2019-04-27T10:26:08.396Z,55.50
2019-04-27T10:28:38.281Z,55.50
2019-04-27T10:31:08.051Z,55.40
2019-04-27T10:33:37.882Z,55.60
2019-04-27T10:36:07.660Z,55.40
2019-04-27T10:38:37.317Z,53.70
2019-04-27T10:41:07.666Z,53.80
2019-04-27T10:43:37.336Z,54.20
2019-04-27T10:46:07.168Z,53.80
2019-04-27T10:48:36.870Z,52.50
2019-04-27T10:51:07.372Z,53.20
2019-04-27T10:53:38.924Z,53.40
2019-04-27T10:56:07.689Z,51.80
2019-04-27T10:58:37.432Z,52.20
2019-04-27T11:01:08.844Z,52.70
2019-04-27T11:03:58.436Z,54.00
2019-04-27T11:06:29.737Z,54.00
2019-04-27T11:08:58.575Z,55.40
2019-04-27T11:11:28.325Z,55.40
2019-04-27T11:14:00.843Z,55.30
2019-04-27T11:16:29.622Z,56.90
2019-04-27T11:18:59.335Z,57.20
2019-04-27T11:21:29.258Z,55.20
2019-04-27T11:23:59.348Z,55.90
2019-04-27T11:26:29.261Z,56.70
2019-04-27T11:28:58.965Z,54.40
2019-04-27T11:31:28.770Z,54.50
2019-04-27T11:33:58.769Z,53.70
2019-04-27T11:36:30.189Z,52.70
2019-04-27T11:39:03.707Z,53.00
2019-04-27T11:41:35.036Z,51.60
2019-04-27T11:44:05.157Z,50.80
2019-04-27T11:46:34.970Z,50.80
2019-04-27T11:49:06.674Z,49.50
2019-04-27T11:51:36.629Z,49.70
2019-04-27T11:54:06.553Z,48.50
2019-04-27T11:56:36.318Z,50.20
2019-04-27T11:59:07.433Z,48.80
2019-04-27T12:01:37.196Z,49.60
2019-04-27T12:04:07.112Z,50.20
2019-04-27T12:06:38.146Z,51.00
2019-04-27T12:09:08.755Z,51.50
2019-04-27T12:11:41.452Z,51.60
2019-04-27T12:14:11.170Z,51.00
2019-04-27T12:16:40.987Z,49.20
2019-04-27T12:19:10.719Z,49.30
2019-04-27T12:21:40.435Z,48.20
2019-04-27T12:24:11.895Z,49.30
2019-04-27T12:26:43.631Z,49.30
2019-04-27T12:29:16.179Z,50.20
2019-04-27T12:31:49.128Z,48.40
2019-04-27T12:34:18.571Z,49.30
2019-04-27T12:36:48.360Z,48.70
2019-04-27T12:39:18.255Z,49.40
2019-04-27T12:41:48.374Z,46.40
2019-04-27T12:44:18.154Z,46.30
2019-04-27T12:46:47.790Z,46.60
2019-04-27T12:49:17.451Z,44.60
2019-04-27T12:51:47.305Z,43.80
2019-04-27T12:54:18.529Z,44.30
2019-04-27T12:57:06.041Z,44.80
2019-04-27T12:59:58.161Z,43.80
2019-04-27T13:02:30.534Z,43.40
2019-04-27T13:05:00.289Z,43.60
2019-04-27T13:07:30.827Z,43.40
2019-04-27T13:10:00.439Z,43.40
2019-04-27T13:12:30.174Z,42.60
2019-04-27T13:14:59.910Z,41.70
2019-04-27T13:17:29.718Z,41.60
2019-04-27T13:19:59.346Z,40.70
2019-04-27T13:22:30.734Z,42.10
2019-04-27T13:27:18.887Z,40.80
2019-04-27T13:29:50.068Z,42.00
2019-04-27T13:32:20.573Z,42.90
2019-04-27T13:34:50.256Z,43.90
2019-04-27T13:37:36.950Z,43.80
2019-04-27T13:40:09.629Z,44.40
2019-04-27T13:42:43.242Z,43.40
2019-04-27T13:45:31.767Z,42.80
2019-04-27T13:48:18.518Z,43.10
2019-04-27T13:50:49.885Z,44.30
2019-04-27T13:53:19.725Z,43.80
2019-04-27T13:55:49.398Z,42.70
2019-04-27T13:58:19.112Z,42.70
2019-04-27T14:00:48.835Z,42.70
2019-04-27T14:03:20.951Z,42.40
2019-04-27T14:05:52.609Z,41.70
2019-04-27T14:08:22.615Z,41.80
2019-04-27T14:10:52.418Z,42.10
2019-04-27T14:13:22.064Z,42.20
2019-04-27T14:15:51.598Z,42.20
2019-04-27T14:18:21.552Z,42.70
2019-04-27T14:20:51.288Z,44.00
2019-04-27T14:23:22.626Z,44.20
2019-04-27T14:25:51.525Z,45.60
2019-04-27T14:28:21.078Z,45.00
2019-04-27T14:30:50.934Z,45.50
2019-04-27T14:33:20.536Z,45.90
2019-04-27T14:35:50.249Z,46.00
2019-04-27T14:38:19.962Z,45.00
2019-04-27T14:40:50.387Z,45.90
2019-04-27T14:43:21.362Z,46.60
2019-04-27T14:45:51.409Z,45.90
2019-04-27T14:48:21.115Z,45.60
2019-04-27T14:50:51.014Z,45.70
2019-04-27T14:53:20.701Z,45.80
2019-04-27T14:55:51.776Z,45.60
2019-04-27T14:58:21.488Z,46.30
2019-04-27T15:00:52.798Z,46.10
2019-04-27T15:03:22.512Z,46.40
2019-04-27T15:05:53.929Z,46.30
2019-04-27T15:08:22.679Z,46.80
2019-04-27T15:10:53.949Z,47.10
2019-04-27T15:13:23.877Z,45.80
2019-04-27T15:15:53.734Z,46.20
2019-04-27T15:18:25.250Z,46.10
2019-04-27T15:20:58.558Z,45.70
2019-04-27T15:23:26.671Z,45.40
2019-04-27T15:25:56.974Z,45.50
2019-04-27T15:28:32.087Z,44.90
2019-04-27T15:31:03.585Z,46.20
2019-04-27T15:33:54.442Z,45.00
2019-04-27T15:36:39.702Z,45.30
2019-04-27T15:39:30.608Z,45.00
2019-04-27T15:42:07.873Z,45.80
2019-04-27T15:44:36.468Z,45.60
2019-04-27T15:47:08.493Z,44.90
2019-04-27T15:49:36.456Z,43.70
2019-04-27T15:52:06.247Z,43.00
2019-04-27T15:54:38.003Z,42.10
2019-04-27T15:57:10.592Z,42.10
2019-04-27T15:59:40.955Z,42.10
2019-04-27T16:02:15.333Z,43.20
2019-04-27T16:04:44.467Z,43.30
2019-04-27T16:07:12.409Z,44.20
2019-04-27T16:09:42.243Z,44.80
2019-04-27T16:12:12.941Z,45.50
2019-04-27T16:14:44.132Z,46.10
2019-04-27T16:17:13.206Z,46.50
2019-04-27T16:19:48.795Z,48.00
2019-04-27T16:22:18.306Z,47.80
2019-04-27T16:24:49.482Z,49.10
2019-04-27T16:27:19.948Z,48.70
2019-04-27T16:29:49.422Z,48.80
2019-04-27T16:32:19.194Z,49.20
2019-04-27T16:34:50.239Z,48.70
2019-04-27T16:37:22.522Z,48.80
2019-04-27T16:39:52.386Z,48.70
2019-04-27T16:42:22.199Z,47.00
2019-04-27T16:44:53.272Z,47.40
2019-04-27T16:47:24.610Z,47.60
2019-04-27T16:49:54.589Z,47.60
2019-04-27T16:52:27.441Z,48.20
2019-04-27T16:57:28.116Z,48.60
2019-04-27T17:00:00.986Z,49.00
2019-04-27T17:02:29.335Z,48.30
2019-04-27T17:04:59.866Z,48.00
2019-04-27T17:07:37.408Z,48.70
2019-04-27T17:10:00.817Z,48.60
2019-04-27T17:12:34.842Z,48.30
2019-04-27T17:12:40.068Z,49.00
2019-04-27T17:15:21.924Z,49.10
2019-04-27T17:17:59.412Z,49.40
2019-04-27T17:20:29.901Z,48.60
2019-04-27T17:23:00.744Z,49.40
2019-04-27T17:25:39.070Z,49.50
2019-04-27T17:28:06.971Z,49.70
2019-04-27T17:30:40.300Z,49.30
2019-04-27T17:33:11.733Z,49.60
2019-04-27T17:35:42.797Z,50.20
2019-04-27T17:38:15.718Z,49.70
2019-04-27T17:40:44.078Z,50.30
2019-04-27T17:43:14.088Z,50.30
2019-04-27T17:45:44.762Z,50.00
2019-04-27T17:48:14.441Z,50.50
2019-04-27T17:50:44.132Z,50.50
2019-04-27T17:53:13.864Z,50.70
2019-04-27T17:55:44.771Z,51.20
2019-04-27T17:58:14.511Z,51.30
2019-04-27T18:00:44.717Z,51.20
2019-04-27T18:03:17.583Z,51.70
2019-04-27T18:05:49.178Z,51.60
2019-04-27T18:08:18.391Z,51.40
2019-04-27T18:10:48.829Z,51.30
2019-04-27T18:13:25.210Z,52.00
2019-04-27T18:15:50.695Z,51.50
2019-04-27T18:18:28.113Z,52.10
2019-04-27T18:20:57.911Z,52.00
2019-04-27T18:23:29.422Z,55.40
2019-04-27T18:25:59.959Z,58.90
2019-04-27T18:28:32.030Z,59.70
2019-04-27T18:31:03.592Z,62.30
2019-04-27T18:33:37.256Z,62.00
2019-04-27T18:36:11.694Z,64.60
2019-04-27T18:38:39.213Z,61.30
2019-04-27T18:41:11.789Z,62.00
2019-04-27T18:43:46.399Z,61.20
2019-04-27T18:46:10.271Z,62.40
2019-04-27T18:48:49.235Z,64.00
2019-04-27T18:51:25.078Z,63.30
2019-04-27T18:53:59.758Z,62.60
2019-04-27T18:56:29.074Z,62.00
2019-04-27T18:58:59.989Z,61.50
2019-04-27T19:01:29.593Z,62.20
2019-04-27T19:03:59.462Z,62.00
2019-04-27T19:06:29.287Z,60.90
2019-04-27T19:08:59.145Z,62.20
2019-04-27T19:11:29.146Z,61.60
2019-04-27T19:13:59.940Z,61.40
2019-04-27T19:16:29.711Z,61.20
2019-04-27T19:18:59.492Z,61.70
2019-04-27T19:21:29.156Z,59.10
2019-04-27T19:23:58.893Z,59.00
2019-04-27T19:26:45.612Z,59.20
2019-04-27T19:29:19.923Z,57.20
2019-04-27T19:31:53.493Z,58.40
2019-04-27T19:34:23.577Z,58.40
2019-04-27T19:36:53.447Z,59.30
2019-04-27T19:39:25.508Z,58.20
2019-04-27T19:42:00.395Z,59.40
2019-04-27T19:44:25.837Z,58.80
2019-04-27T19:46:55.380Z,59.30
2019-04-27T19:49:25.478Z,59.60
2019-04-27T19:51:58.693Z,60.30
2019-04-27T19:54:30.186Z,60.60
2019-04-27T19:56:59.497Z,60.90
2019-04-27T19:59:33.425Z,61.00
2019-04-27T20:02:05.044Z,61.30
2019-04-27T20:04:36.549Z,61.80
2019-04-27T20:07:06.435Z,63.90
2019-04-27T20:09:40.607Z,65.10
2019-04-27T20:12:10.594Z,65.40
2019-04-27T20:14:56.359Z,67.70
2019-04-27T20:17:31.108Z,68.20
2019-04-27T20:20:01.128Z,69.00
2019-04-27T20:22:32.185Z,68.40
2019-04-27T20:25:02.138Z,68.90
2019-04-27T20:27:45.278Z,67.50
2019-04-27T20:30:06.384Z,67.60
2019-04-27T20:32:36.114Z,66.70
2019-04-27T20:35:07.143Z,67.80
2019-04-27T20:37:39.214Z,67.30
2019-04-27T20:40:11.180Z,67.80
2019-04-27T20:42:41.527Z,66.30
2019-04-27T20:45:12.035Z,64.90
2019-04-27T20:47:41.851Z,64.70
2019-04-27T20:50:11.809Z,65.50
2019-04-27T20:52:44.448Z,64.50
2019-04-27T20:55:14.277Z,64.30
2019-04-27T20:57:44.150Z,63.40
2019-04-27T21:00:15.574Z,62.90
2019-04-27T21:02:51.702Z,64.20
2019-04-27T21:05:31.653Z,62.30
2019-04-27T21:08:08.648Z,62.70
2019-04-27T21:10:38.408Z,62.70
2019-04-27T21:13:08.512Z,64.30
2019-04-27T21:15:38.279Z,64.60
2019-04-27T21:18:07.932Z,64.90
2019-04-27T21:20:41.181Z,64.80
2019-04-27T21:23:12.247Z,63.10
2019-04-27T21:25:42.307Z,63.90
2019-04-27T21:28:18.557Z,64.50
2019-04-27T21:30:43.667Z,64.10
2019-04-27T21:33:13.374Z,65.70
2019-04-27T21:35:45.073Z,66.20
2019-04-27T21:38:15.560Z,64.80
2019-04-27T21:40:45.244Z,64.60
2019-04-27T21:43:16.532Z,65.20
2019-04-27T21:45:45.430Z,65.60
2019-04-27T21:48:15.953Z,65.00
2019-04-27T21:50:45.783Z,64.80
2019-04-27T21:53:23.294Z,65.70
2019-04-27T21:56:03.211Z,65.80
2019-04-27T21:58:33.352Z,65.70
2019-04-27T22:01:17.138Z,65.00
2019-04-27T22:03:47.223Z,65.10
2019-04-27T22:06:16.941Z,65.80
2019-04-27T22:08:46.817Z,65.30
2019-04-27T22:11:16.574Z,65.80
2019-04-27T22:13:46.305Z,65.20
2019-04-27T22:16:16.080Z,65.10
2019-04-27T22:18:45.820Z,64.90
2019-04-27T22:21:17.056Z,65.20
2019-04-27T22:23:51.527Z,64.80
2019-04-27T22:26:21.448Z,65.60
2019-04-27T22:28:52.038Z,65.00
2019-04-27T22:31:22.128Z,65.50
2019-04-27T22:33:54.578Z,65.80
2019-04-27T22:36:23.770Z,66.30
2019-04-27T22:38:57.584Z,65.80
2019-04-27T22:41:46.647Z,65.80
2019-04-27T22:44:23.157Z,65.80
2019-04-27T22:46:54.382Z,66.50
2019-04-27T22:49:24.067Z,66.00
2019-04-27T22:51:53.620Z,66.00
2019-04-27T22:54:23.450Z,65.00
2019-04-27T22:56:54.731Z,65.00
2019-04-27T22:59:29.002Z,65.10
2019-04-27T23:02:15.965Z,66.00
2019-04-27T23:04:58.085Z,66.10
2019-04-27T23:07:27.973Z,65.70
2019-04-27T23:09:57.824Z,65.40
2019-04-27T23:12:31.545Z,65.10
2019-04-27T23:15:02.551Z,65.00
2019-04-27T23:17:41.763Z,65.20
2019-04-27T23:20:11.703Z,65.20
2019-04-27T23:22:41.456Z,65.00
2019-04-27T23:25:11.388Z,65.00
2019-04-27T23:27:41.154Z,64.70
2019-04-27T23:30:14.001Z,64.50
2019-04-27T23:32:46.087Z,64.60
2019-04-27T23:35:16.008Z,64.30
2019-04-27T23:37:45.893Z,65.20
2019-04-27T23:40:15.962Z,66.00
2019-04-27T23:42:45.755Z,66.30
2019-04-27T23:45:16.212Z,65.70
2019-04-27T23:47:47.052Z,66.10
2019-04-27T23:50:17.042Z,68.40
2019-04-27T23:53:03.636Z,67.30
2019-04-27T23:55:34.945Z,67.80
2019-04-27T23:58:05.690Z,67.40
